Time;durP1;ratioP1;P1;durP2;ratioP2;P2;SDS_P1;SDS_P2;PMS_P1;PMS_P2;Temp;Humidity;BMP_temperature;BMP_pressure;BME280_temperature;BME280_humidity;BME280_pressure;Samples;Min_cycle;Max_cycle;Signal;HPM_P1;HPM_P2
2021/03/24 00:00:38;;;;;;;33.00;29.67;;;;;21.10;101256.00;;;;2070891;28;20218;-45
2021/03/24 00:01:39;;;;;;;30.45;27.25;;;;;21.10;101250.00;;;;2069657;28;20214;-47
2021/03/24 00:02:39;;;;;;;31.27;27.97;;;;;21.10;101247.00;;;;2070254;28;20210;-46
2021/03/24 00:03:40;;;;;;;31.40;28.00;;;;;21.10;101255.00;;;;2076862;28;20224;-46
2021/03/24 00:04:40;;;;;;;33.17;29.77;;;;;21.00;101252.00;;;;2074721;28;20685;-46
2021/03/24 00:05:49;;;;;;;31.67;28.37;;;;;21.00;101250.00;;;;2069794;28;20235;-46
2021/03/24 00:06:49;;;;;;;30.25;27.15;;;;;21.00;101247.00;;;;2074253;28;20220;-46
2021/03/24 00:07:50;;;;;;;30.67;27.47;;;;;21.00;101244.00;;;;2070229;28;20257;-45
2021/03/24 00:08:50;;;;;;;30.17;27.10;;;;;21.00;101250.00;;;;2072505;28;20293;-45
2021/03/24 00:09:50;;;;;;;28.97;25.80;;;;;21.00;101252.00;;;;2073097;28;20229;-45
2021/03/24 00:10:51;;;;;;;30.47;27.30;;;;;21.00;101253.00;;;;2074780;28;20214;-46
2021/03/24 00:11:51;;;;;;;29.90;26.73;;;;;21.00;101250.00;;;;2077873;28;20210;-45
2021/03/24 00:12:52;;;;;;;28.30;25.60;;;;;21.00;101256.00;;;;2078100;28;20287;-46
2021/03/24 00:13:52;;;;;;;28.20;25.40;;;;;21.00;101252.00;;;;2071292;28;20222;-45
2021/03/24 00:14:53;;;;;;;29.60;26.50;;;;;21.00;101251.00;;;;2073240;28;20464;-46
2021/03/24 00:15:53;;;;;;;29.80;26.57;;;;;21.00;101251.00;;;;2078195;28;20228;-45
2021/03/24 00:16:53;;;;;;;28.17;25.27;;;;;21.00;101253.00;;;;2077942;28;20218;-45
2021/03/24 00:17:54;;;;;;;27.07;24.33;;;;;21.00;101250.00;;;;2078211;28;20222;-46
2021/03/24 00:18:55;;;;;;;26.37;23.70;;;;;21.00;101261.00;;;;2073072;28;20230;-46
2021/03/24 00:19:55;;;;;;;29.23;26.20;;;;;21.00;101249.00;;;;2071346;28;20504;-46
2021/03/24 00:20:55;;;;;;;27.60;24.73;;;;;21.00;101256.00;;;;2078675;28;20297;-46
2021/03/24 00:21:56;;;;;;;28.00;25.10;;;;;21.00;101256.00;;;;2075168;28;20759;-46
2021/03/24 00:22:57;;;;;;;25.93;23.20;;;;;21.00;101262.00;;;;2070721;28;20223;-46
2021/03/24 00:23:57;;;;;;;26.30;23.70;;;;;21.00;101255.00;;;;2078478;28;20218;-46
2021/03/24 00:24:59;;;;;;;25.90;23.20;;;;;21.00;101257.00;;;;2078749;28;20452;-47
2021/03/24 00:26:00;;;;;;;26.15;23.40;;;;;21.00;101255.00;;;;2069954;28;20297;-46
2021/03/24 00:27:00;;;;;;;25.73;23.07;;;;;21.00;101255.00;;;;2070021;28;20218;-46
2021/03/24 00:28:00;;;;;;;27.53;24.83;;;;;20.90;101254.00;;;;2072810;28;20222;-46
2021/03/24 00:29:01;;;;;;;26.67;24.07;;;;;21.00;101255.00;;;;2070398;28;20225;-46
2021/03/24 00:30:03;;;;;;;26.57;23.77;;;;;21.00;101260.00;;;;2069027;28;20691;-46
2021/03/24 00:31:03;;;;;;;25.75;23.15;;;;;21.00;101261.00;;;;2070662;28;20215;-46
2021/03/24 00:32:04;;;;;;;26.77;23.97;;;;;21.00;101257.00;;;;2070450;28;20268;-46
2021/03/24 00:33:05;;;;;;;25.30;22.90;;;;;20.90;101258.00;;;;2070612;28;20344;-47
2021/03/24 00:34:05;;;;;;;27.57;24.60;;;;;20.90;101252.00;;;;2070328;28;20497;-46
2021/03/24 00:35:06;;;;;;;26.17;23.67;;;;;20.90;101248.00;;;;2069298;28;20210;-46
2021/03/24 00:36:07;;;;;;;25.27;22.67;;;;;20.90;101255.00;;;;2076626;28;20665;-46
2021/03/24 00:37:07;;;;;;;24.20;21.87;;;;;20.90;101260.00;;;;2077821;28;20214;-46
2021/03/24 00:38:08;;;;;;;25.23;22.70;;;;;20.90;101248.00;;;;2078267;28;20702;-46
2021/03/24 00:39:08;;;;;;;24.20;21.87;;;;;20.90;101254.00;;;;2077399;28;20230;-46
2021/03/24 00:40:11;;;;;;;25.50;22.90;;;;;20.90;101248.00;;;;2075472;28;20951;-46
2021/03/24 00:41:12;;;;;;;25.92;23.33;;;;;20.90;101251.00;;;;2070587;28;20218;-46
2021/03/24 00:42:12;;;;;;;24.37;21.97;;;;;20.90;101251.00;;;;2070004;28;20683;-46
2021/03/24 00:43:13;;;;;;;24.33;21.93;;;;;20.90;101252.00;;;;2064835;28;20222;-46
2021/03/24 00:44:13;;;;;;;22.60;20.43;;;;;20.90;101252.00;;;;2077781;28;20280;-47
2021/03/24 00:45:14;;;;;;;22.90;20.60;;;;;20.90;101248.00;;;;2074088;28;20215;-46
2021/03/24 00:46:14;;;;;;;22.77;20.17;;;;;20.90;101245.00;;;;2069678;28;20214;-51
2021/03/24 00:47:15;;;;;;;21.93;19.83;;;;;20.90;101254.00;;;;2070219;28;20226;-49
2021/03/24 00:48:26;;;;;;;23.07;20.67;;;;;20.90;101254.00;;;;2070454;28;20214;-47
2021/03/24 00:49:27;;;;;;;24.38;21.88;;;;;20.90;101254.00;;;;2068983;28;20610;-46
2021/03/24 00:50:28;;;;;;;24.97;22.43;;;;;20.90;101250.00;;;;2070346;28;20214;-47
2021/03/24 00:51:28;;;;;;;23.17;20.92;;;;;20.90;101240.00;;;;2068569;28;20292;-47
2021/03/24 00:52:29;;;;;;;23.23;20.80;;;;;20.90;101247.00;;;;2069502;28;20214;-47
2021/03/24 00:53:29;;;;;;;22.70;20.43;;;;;20.90;101246.00;;;;2070233;28;20221;-47
2021/03/24 00:54:29;;;;;;;23.00;20.70;;;;;20.90;101244.00;;;;2070488;28;20209;-47
2021/03/24 00:55:30;;;;;;;23.07;20.57;;;;;20.80;101235.00;;;;2070650;28;20214;-46
2021/03/24 00:56:30;;;;;;;21.67;19.47;;;;;20.90;101230.00;;;;2069705;28;20738;-46
2021/03/24 00:57:31;;;;;;;21.53;19.20;;;;;20.90;101229.00;;;;2071828;28;20217;-46
2021/03/24 00:58:31;;;;;;;21.03;18.93;;;;;20.80;101232.00;;;;2077683;28;20275;-46
2021/03/24 00:59:31;;;;;;;21.77;19.57;;;;;20.90;101239.00;;;;2070414;28;20210;-46
2021/03/24 01:00:33;;;;;;;21.07;18.97;;;;;20.80;101235.00;;;;2074213;28;20902;-46
2021/03/24 01:01:34;;;;;;;21.00;19.00;;;;;20.80;101239.00;;;;2077585;28;20218;-46
2021/03/24 01:02:34;;;;;;;21.13;19.13;;;;;20.80;101239.00;;;;2078331;28;20284;-46
2021/03/24 01:03:36;;;;;;;20.27;18.20;;;;;20.80;101234.00;;;;2078551;28;20293;-46
2021/03/24 01:04:36;;;;;;;22.40;20.15;;;;;20.80;101233.00;;;;2077992;28;20225;-47
2021/03/24 01:05:37;;;;;;;21.27;19.17;;;;;20.80;101238.00;;;;2078482;28;20225;-46
2021/03/24 01:06:38;;;;;;;21.47;19.50;;;;;20.80;101236.00;;;;2078463;28;20325;-46
2021/03/24 01:07:41;;;;;;;20.77;18.80;;;;;20.80;101243.00;;;;2078352;28;20527;-46
2021/03/24 01:08:41;;;;;;;22.17;18.88;;;;;20.80;101238.00;;;;2078709;28;20639;-46
2021/03/24 01:09:41;;;;;;;19.57;17.80;;;;;20.80;101237.00;;;;2076581;28;20229;-47
2021/03/24 01:10:42;;;;;;;21.23;19.13;;;;;20.80;101242.00;;;;2077989;28;20214;-46
2021/03/24 01:11:42;;;;;;;19.87;17.93;;;;;20.80;101238.00;;;;2078352;28;20644;-46
2021/03/24 01:12:42;;;;;;;20.20;18.30;;;;;20.80;101239.00;;;;2077607;28;20671;-46
2021/03/24 01:13:43;;;;;;;20.53;18.60;;;;;20.80;101240.00;;;;2077553;28;20272;-46
2021/03/24 01:14:43;;;;;;;21.20;18.97;;;;;20.80;101236.00;;;;2077938;28;20221;-46
2021/03/24 01:15:44;;;;;;;19.23;17.40;;;;;20.80;101239.00;;;;2077674;28;20245;-45
2021/03/24 01:16:44;;;;;;;19.20;17.37;;;;;20.80;101238.00;;;;2069934;28;20277;-46
2021/03/24 01:17:45;;;;;;;20.80;18.73;;;;;20.80;101234.00;;;;2069382;28;20611;-46
2021/03/24 01:18:45;;;;;;;20.23;18.23;;;;;20.80;101236.00;;;;2060910;28;20231;-46
2021/03/24 01:19:45;;;;;;;20.63;18.53;;;;;20.80;101235.00;;;;2059032;28;20282;-46
2021/03/24 01:20:46;;;;;;;19.43;17.53;;;;;20.80;101232.00;;;;2069955;28;20229;-46
2021/03/24 01:21:46;;;;;;;19.93;17.83;;;;;20.80;101241.00;;;;2069468;28;20369;-47
2021/03/24 01:22:47;;;;;;;21.00;19.10;;;;;20.80;101236.00;;;;2069917;28;20723;-46
2021/03/24 01:23:47;;;;;;;20.30;18.40;;;;;20.80;101240.00;;;;2073096;28;20242;-46
2021/03/24 01:24:48;;;;;;;18.53;16.70;;;;;20.80;101231.00;;;;2076931;28;20210;-46
2021/03/24 01:25:48;;;;;;;19.90;18.00;;;;;20.70;101235.00;;;;2077860;28;20463;-46
2021/03/24 01:26:49;;;;;;;18.30;16.50;;;;;20.70;101239.00;;;;2077704;28;20218;-47
2021/03/24 01:27:49;;;;;;;18.80;16.93;;;;;20.70;101238.00;;;;2065172;28;20214;-46
2021/03/24 01:28:57;;;;;;;19.20;17.30;;;;;20.70;101226.00;;;;2080382;28;20206;-46
2021/03/24 01:29:58;;;;;;;19.73;17.73;;;;;20.70;101226.00;;;;2074246;28;20222;-46
2021/03/24 01:30:59;;;;;;;20.43;18.53;;;;;20.70;101229.00;;;;2070139;28;20222;-46
2021/03/24 01:31:59;;;;;;;18.13;16.30;;;;;20.70;101231.00;;;;2070113;28;20762;-46
2021/03/24 01:33:00;;;;;;;18.40;16.70;;;;;20.70;101233.00;;;;2069982;28;20265;-46
2021/03/24 01:34:00;;;;;;;18.33;16.63;;;;;20.70;101228.00;;;;2070198;28;20215;-46
2021/03/24 01:35:01;;;;;;;19.73;17.87;;;;;20.70;101229.00;;;;2069906;28;20253;-46
2021/03/24 01:36:01;;;;;;;19.50;17.23;;;;;20.70;101232.00;;;;2069937;28;20203;-46
2021/03/24 01:37:02;;;;;;;19.23;17.53;;;;;20.70;101231.00;;;;2070504;28;20438;-46
2021/03/24 01:38:03;;;;;;;18.77;17.07;;;;;20.70;101228.00;;;;2070283;28;20207;-46
2021/03/24 01:39:04;;;;;;;18.50;16.58;;;;;20.70;101236.00;;;;2070404;28;20227;-46
2021/03/24 01:40:08;;;;;;;19.20;17.40;;;;;20.70;101221.00;;;;2069275;28;20210;-46
2021/03/24 01:41:09;;;;;;;19.05;17.15;;;;;20.70;101227.00;;;;2070293;28;20207;-46
2021/03/24 01:42:09;;;;;;;18.37;16.63;;;;;20.70;101228.00;;;;2062033;28;20218;-47
2021/03/24 01:43:23;;;;;;;18.30;16.50;;;;;20.70;101228.00;;;;2068625;28;20223;-46
2021/03/24 01:44:25;;;;;;;17.25;15.63;;;;;20.70;101236.00;;;;2073062;28;20224;-47
2021/03/24 01:45:25;;;;;;;17.63;15.93;;;;;20.70;101228.00;;;;2077650;28;20245;-47
2021/03/24 01:46:33;;;;;;;18.17;16.37;;;;;20.70;101227.00;;;;2076921;28;20767;-47
2021/03/24 01:47:33;;;;;;;17.40;15.77;;;;;20.70;101229.00;;;;2077423;28;20213;-46
2021/03/24 01:48:34;;;;;;;19.77;17.77;;;;;20.70;101222.00;;;;2076990;28;20220;-46
2021/03/24 01:49:35;;;;;;;18.13;16.37;;;;;20.70;101213.00;;;;2067361;28;20218;-46
2021/03/24 01:50:36;;;;;;;17.63;15.97;;;;;20.70;101226.00;;;;2068907;28;20212;-45
2021/03/24 01:51:44;;;;;;;17.88;16.20;;;;;20.70;101229.00;;;;2052328;28;20514;-46
2021/03/24 01:52:44;;;;;;;16.50;14.85;;;;;20.60;101223.00;;;;2062078;28;21247;-46
2021/03/24 01:53:45;;;;;;;17.87;16.07;;;;;20.70;101229.00;;;;2077639;28;20237;-46
2021/03/24 01:54:45;;;;;;;17.57;15.83;;;;;20.60;101223.00;;;;2078264;28;20218;-46
2021/03/24 01:55:46;;;;;;;16.07;14.57;;;;;20.70;101221.00;;;;2078373;28;20324;-46
2021/03/24 01:56:47;;;;;;;18.90;17.07;;;;;20.60;101223.00;;;;2076970;28;20658;-46
2021/03/24 01:57:47;;;;;;;17.65;15.95;;;;;20.60;101222.00;;;;2069258;28;20676;-46
2021/03/24 01:58:48;;;;;;;16.40;14.90;;;;;20.60;101217.00;;;;2073559;28;20222;-46
2021/03/24 01:59:49;;;;;;;18.23;16.37;;;;;20.60;101226.00;;;;2072015;28;20294;-46
2021/03/24 02:00:51;;;;;;;16.33;14.77;;;;;20.60;101220.00;;;;2062586;28;20208;-46
2021/03/24 02:01:53;;;;;;;17.48;15.32;;;;;20.60;101222.00;;;;2070201;28;20298;-46
2021/03/24 02:02:53;;;;;;;17.60;15.88;;;;;20.60;101229.00;;;;2071087;28;20621;-46
2021/03/24 02:03:54;;;;;;;16.47;14.77;;;;;20.60;101213.00;;;;2071005;28;20746;-46
2021/03/24 02:04:54;;;;;;;16.17;14.67;;;;;20.60;101218.00;;;;2070206;28;20215;-47
2021/03/24 02:05:55;;;;;;;17.73;14.90;;;;;20.60;101216.00;;;;2070095;28;20214;-46
2021/03/24 02:07:15;;;;;;;16.20;14.60;;;;;20.60;101227.00;;;;2061922;28;20211;-46
2021/03/24 02:08:31;;;;;;;16.77;15.15;;;;;20.60;101214.00;;;;2069497;28;20214;-46
2021/03/24 02:09:43;;;;;;;15.93;14.23;;;;;20.60;101216.00;;;;2071012;28;20622;-46
2021/03/24 02:10:47;;;;;;;15.20;13.80;;;;;20.60;101218.00;;;;2071647;28;20222;-46
2021/03/24 02:11:55;;;;;;;17.40;15.80;;;;;20.60;101213.00;;;;2079067;28;20372;-46
2021/03/24 02:13:34;;;;;;;16.45;14.95;;;;;20.60;101216.00;;;;2070172;28;20599;-46
2021/03/24 02:14:45;;;;;;;16.02;14.45;;;;;20.60;101214.00;;;;2067399;28;20210;-46
2021/03/24 02:15:58;;;;;;;16.77;15.15;;;;;20.60;101215.00;;;;2067314;28;20596;-46
2021/03/24 02:16:58;;;;;;;16.50;14.90;;;;;20.60;101207.00;;;;2057423;28;20580;-49
2021/03/24 02:17:59;;;;;;;15.70;14.10;;;;;20.60;101211.00;;;;2062459;28;20208;-47
2021/03/24 02:18:59;;;;;;;15.50;14.00;;;;;20.60;101206.00;;;;2057920;28;20716;-46
2021/03/24 02:20:07;;;;;;;16.67;14.97;;;;;20.60;101210.00;;;;2060584;28;20454;-47
2021/03/24 02:21:10;;;;;;;16.05;14.55;;;;;20.60;101203.00;;;;2071030;28;20575;-46
2021/03/24 02:22:11;;;;;;;16.70;14.93;;;;;20.60;101205.00;;;;2062293;28;20684;-46
2021/03/24 02:23:20;;;;;;;14.83;13.43;;;;;20.50;101206.00;;;;2062170;28;20203;-46
2021/03/24 02:24:32;;;;;;;15.15;13.65;;;;;20.60;101202.00;;;;2069951;28;20222;-46
2021/03/24 02:25:45;;;;;;;17.15;15.45;;;;;20.60;101208.00;;;;2072402;28;20230;-46
2021/03/24 02:27:20;;;;;;;15.95;14.35;;;;;20.50;101206.00;;;;2072000;28;20226;-47
2021/03/24 02:28:21;;;;;;;15.07;13.68;;;;;20.50;101204.00;;;;2065253;28;20214;-45
2021/03/24 02:29:21;;;;;;;14.90;13.40;;;;;20.50;101207.00;;;;2065732;28;20347;-47
2021/03/24 02:30:25;;;;;;;15.27;13.87;;;;;20.50;101214.00;;;;2072460;28;20262;-46
2021/03/24 02:31:25;;;;;;;15.05;13.75;;;;;20.50;101213.00;;;;2070491;28;20972;-46
2021/03/24 02:32:26;;;;;;;15.97;14.47;;;;;20.50;101216.00;;;;2061362;28;20318;-46
2021/03/24 02:33:30;;;;;;;16.15;14.55;;;;;20.50;101208.00;;;;2062154;28;20950;-48
2021/03/24 02:34:30;;;;;;;14.60;13.25;;;;;20.50;101206.00;;;;2076931;28;20222;-48
2021/03/24 02:35:32;;;;;;;14.50;13.20;;;;;20.50;101208.00;;;;2070085;28;20222;-48
2021/03/24 02:36:33;;;;;;;14.63;13.15;;;;;20.50;101209.00;;;;2069886;28;20215;-46
2021/03/24 02:37:34;;;;;;;15.10;13.70;;;;;20.50;101201.00;;;;2062135;28;20525;-47
2021/03/24 02:38:35;;;;;;;14.63;13.23;;;;;20.50;101214.00;;;;2062048;28;20239;-47
2021/03/24 02:39:35;;;;;;;15.07;13.57;;;;;20.50;101219.00;;;;2061057;28;20273;-47
2021/03/24 02:40:36;;;;;;;15.17;13.70;;;;;20.50;101219.00;;;;2062142;28;20298;-47
2021/03/24 02:41:36;;;;;;;15.10;13.60;;;;;20.50;101214.00;;;;2061956;28;20230;-46
2021/03/24 02:42:38;;;;;;;14.23;12.83;;;;;20.50;101217.00;;;;2059124;28;20216;-46
2021/03/24 02:43:38;;;;;;;14.95;13.60;;;;;20.50;101215.00;;;;2062117;28;20220;-46
2021/03/24 02:44:39;;;;;;;15.20;13.90;;;;;20.50;101217.00;;;;2045556;28;20216;-46
2021/03/24 02:45:41;;;;;;;14.93;13.40;;;;;20.50;101209.00;;;;2062221;28;20246;-46
2021/03/24 02:46:42;;;;;;;14.55;13.20;;;;;20.50;101211.00;;;;2070080;28;20222;-48
2021/03/24 02:47:42;;;;;;;14.47;13.17;;;;;20.50;101214.00;;;;2053892;28;20222;-47
2021/03/24 02:48:43;;;;;;;15.67;14.10;;;;;20.50;101208.00;;;;2046585;28;20220;-46
2021/03/24 02:49:43;;;;;;;14.00;12.70;;;;;20.50;101210.00;;;;2053431;28;20220;-46
2021/03/24 02:50:44;;;;;;;15.13;13.63;;;;;20.50;101212.00;;;;2070550;28;20233;-46
2021/03/24 02:51:45;;;;;;;13.73;12.43;;;;;20.50;101205.00;;;;2070673;28;20215;-46
2021/03/24 02:52:45;;;;;;;13.88;12.68;;;;;20.50;101202.00;;;;2059740;28;20223;-46
2021/03/24 02:53:45;;;;;;;14.57;13.17;;;;;20.50;101201.00;;;;2062046;28;20407;-46
2021/03/24 02:54:46;;;;;;;14.83;13.50;;;;;20.50;101202.00;;;;2046256;28;20303;-46
2021/03/24 02:55:46;;;;;;;14.10;12.80;;;;;20.50;101210.00;;;;2062412;28;20216;-46
2021/03/24 02:56:47;;;;;;;13.90;12.50;;;;;20.50;101209.00;;;;2069855;28;20215;-46
2021/03/24 02:57:48;;;;;;;13.20;12.00;;;;;20.40;101210.00;;;;2069159;28;20215;-46
2021/03/24 02:58:50;;;;;;;14.10;12.80;;;;;20.40;101205.00;;;;2071291;28;20218;-46
2021/03/24 02:59:51;;;;;;;13.57;12.38;;;;;20.40;101214.00;;;;2070376;28;20629;-46
2021/03/24 03:00:51;;;;;;;14.15;12.95;;;;;20.50;101205.00;;;;2062395;28;20842;-46
2021/03/24 03:02:06;;;;;;;14.90;13.60;;;;;20.40;101211.00;;;;2060178;28;20215;-47
2021/03/24 03:03:15;;;;;;;14.30;13.05;;;;;20.40;101211.00;;;;2069547;28;20308;-47
2021/03/24 03:04:24;;;;;;;13.93;12.65;;;;;20.40;101215.00;;;;2061218;28;20211;-46
2021/03/24 03:05:29;;;;;;;13.25;12.05;;;;;20.40;101199.00;;;;2062641;28;20219;-46
2021/03/24 03:06:29;;;;;;;14.35;12.95;;;;;20.40;101204.00;;;;2061677;28;20584;-46
2021/03/24 03:07:31;;;;;;;14.57;13.10;;;;;20.40;101205.00;;;;2062428;28;20235;-45
2021/03/24 03:08:50;;;;;;;13.68;12.48;;;;;20.40;101205.00;;;;2074499;28;20781;-46
2021/03/24 03:09:51;;;;;;;13.63;12.32;;;;;20.40;101198.00;;;;2062830;28;20349;-46
2021/03/24 03:11:22;;;;;;;13.45;12.25;;;;;20.40;101204.00;;;;2070412;28;20214;-46
2021/03/24 03:12:53;;;;;;;13.30;12.20;;;;;20.40;101203.00;;;;2078978;28;20218;-46
2021/03/24 03:13:58;;;;;;;12.18;11.07;;;;;20.40;101202.00;;;;2076409;28;20296;-46
2021/03/24 03:15:01;;;;;;;14.23;12.82;;;;;20.40;101201.00;;;;2070702;28;20269;-45
2021/03/24 03:16:06;;;;;;;14.88;13.38;;;;;20.40;101209.00;;;;2070627;28;20234;-46
2021/03/24 03:17:43;;;;;;;14.30;13.00;;;;;20.40;101197.00;;;;2053476;28;20707;-46
2021/03/24 03:19:03;;;;;;;14.38;12.98;;;;;20.40;101205.00;;;;2070376;28;20777;-47
2021/03/24 03:20:07;;;;;;;13.05;11.95;;;;;20.40;101201.00;;;;2068764;28;20238;-46
2021/03/24 03:21:16;;;;;;;14.30;12.80;;;;;20.40;101210.00;;;;2077152;28;20210;-46
2021/03/24 03:22:20;;;;;;;13.65;12.35;;;;;20.40;101203.00;;;;2077509;28;20308;-46
2021/03/24 03:23:22;;;;;;;13.75;12.43;;;;;20.40;101203.00;;;;2070420;28;20418;-45
2021/03/24 03:24:23;;;;;;;14.65;13.30;;;;;20.40;101204.00;;;;2069898;28;20839;-46
2021/03/24 03:25:29;;;;;;;13.77;12.53;;;;;20.40;101198.00;;;;2070575;28;20262;-46
2021/03/24 03:26:29;;;;;;;13.02;11.93;;;;;20.40;101204.00;;;;2070797;28;20233;-46
2021/03/24 03:27:30;;;;;;;13.30;12.10;;;;;20.40;101209.00;;;;2055973;28;20708;-46
2021/03/24 03:28:30;;;;;;;13.00;11.70;;;;;20.40;101205.00;;;;2054812;28;20790;-46
2021/03/24 03:29:31;;;;;;;14.83;13.50;;;;;20.40;101203.00;;;;2053925;28;20227;-47
2021/03/24 03:30:32;;;;;;;14.23;12.83;;;;;20.40;101200.00;;;;2070511;28;20241;-46
2021/03/24 03:31:35;;;;;;;14.02;12.77;;;;;20.40;101205.00;;;;2062361;28;20302;-46
2021/03/24 03:32:35;;;;;;;13.77;12.40;;;;;20.40;101201.00;;;;2051827;28;20239;-46
2021/03/24 03:33:36;;;;;;;13.57;12.37;;;;;20.30;101199.00;;;;2062064;28;20215;-46
2021/03/24 03:34:37;;;;;;;14.32;12.95;;;;;20.30;101191.00;;;;2061642;28;20415;-46
2021/03/24 03:35:37;;;;;;;12.33;11.23;;;;;20.40;101203.00;;;;2053965;28;20624;-46
2021/03/24 03:36:39;;;;;;;14.43;13.00;;;;;20.40;101202.00;;;;2062269;28;20346;-46
2021/03/24 03:37:40;;;;;;;13.70;12.30;;;;;20.30;101207.00;;;;2058234;28;20835;-46
2021/03/24 03:38:40;;;;;;;13.80;12.50;;;;;20.30;101208.00;;;;2067950;28;20223;-46
2021/03/24 03:39:40;;;;;;;13.03;11.83;;;;;20.30;101197.00;;;;2060280;28;20226;-46
2021/03/24 03:40:41;;;;;;;14.30;13.10;;;;;20.30;101198.00;;;;2053601;28;20668;-46
2021/03/24 03:41:41;;;;;;;12.43;11.40;;;;;20.30;101207.00;;;;2061310;28;20234;-46
2021/03/24 03:42:42;;;;;;;14.00;12.80;;;;;20.30;101201.00;;;;2070547;28;20218;-45
2021/03/24 03:43:47;;;;;;;14.30;13.00;;;;;20.30;101207.00;;;;2077841;28;20752;-46
2021/03/24 03:44:47;;;;;;;13.90;12.60;;;;;20.30;101202.00;;;;2076627;28;20229;-46
2021/03/24 03:45:48;;;;;;;13.10;11.90;;;;;20.30;101201.00;;;;2070223;28;20230;-46
2021/03/24 03:46:49;;;;;;;13.10;11.83;;;;;20.30;101209.00;;;;2070024;28;20221;-46
2021/03/24 03:47:50;;;;;;;13.18;11.98;;;;;20.30;101212.00;;;;2070064;28;20465;-49
2021/03/24 03:48:50;;;;;;;13.37;12.07;;;;;20.30;101207.00;;;;2078238;28;20242;-46
2021/03/24 03:49:51;;;;;;;12.13;11.13;;;;;20.30;101202.00;;;;2077801;28;20206;-47
2021/03/24 03:50:55;;;;;;;13.60;12.40;;;;;20.30;101208.00;;;;2070155;28;20545;-47
2021/03/24 03:52:33;;;;;;;13.43;12.27;;;;;20.30;101202.00;;;;2067856;28;20472;-46
2021/03/24 03:53:37;;;;;;;12.98;11.77;;;;;20.30;101205.00;;;;2078098;28;20217;-46
2021/03/24 03:54:40;;;;;;;12.82;11.73;;;;;20.30;101207.00;;;;2069562;28;20215;-46
2021/03/24 03:56:03;;;;;;;13.80;12.50;;;;;20.30;101199.00;;;;2070472;28;20219;-46
2021/03/24 03:57:29;;;;;;;13.80;12.50;;;;;20.30;101191.00;;;;2069029;28;20396;-46
2021/03/24 03:58:38;;;;;;;13.27;12.07;;;;;20.30;101204.00;;;;2062102;28;20677;-46
2021/03/24 03:59:41;;;;;;;11.65;10.55;;;;;20.30;101205.00;;;;2060850;28;20235;-46
2021/03/24 04:00:48;;;;;;;13.30;12.10;;;;;20.30;101194.00;;;;2072494;28;20287;-46
2021/03/24 04:01:53;;;;;;;11.55;10.45;;;;;20.30;101200.00;;;;2057896;28;20215;-47
2021/03/24 04:03:01;;;;;;;11.85;10.85;;;;;20.30;101202.00;;;;2062214;28;20258;-47
2021/03/24 04:04:30;;;;;;;12.73;11.63;;;;;20.30;101191.00;;;;2063189;28;20625;-47
2021/03/24 04:05:33;;;;;;;10.93;9.95;;;;;20.30;101194.00;;;;2072635;28;20272;-46
2021/03/24 04:06:43;;;;;;;12.82;11.63;;;;;20.30;101199.00;;;;2069404;28;20321;-45
2021/03/24 04:07:46;;;;;;;12.43;11.32;;;;;20.20;101193.00;;;;2061680;28;20223;-46
2021/03/24 04:08:46;;;;;;;12.98;11.77;;;;;20.20;101197.00;;;;2070767;28;20290;-46
2021/03/24 04:09:47;;;;;;;13.03;11.93;;;;;20.20;101204.00;;;;2061078;28;20635;-47
2021/03/24 04:10:55;;;;;;;11.33;10.23;;;;;20.20;101197.00;;;;2069902;28;20758;-46
2021/03/24 04:11:55;;;;;;;13.20;11.98;;;;;20.20;101195.00;;;;2069498;28;20229;-47
2021/03/24 04:12:56;;;;;;;12.53;11.43;;;;;20.20;101193.00;;;;2061934;28;20601;-47
2021/03/24 04:13:56;;;;;;;12.93;11.70;;;;;20.30;101199.00;;;;2069856;28;20289;-47
2021/03/24 04:14:57;;;;;;;11.90;10.80;;;;;20.20;101186.00;;;;2069967;28;20265;-47
2021/03/24 04:15:58;;;;;;;11.23;10.23;;;;;20.20;101184.00;;;;2061893;28;20624;-47
2021/03/24 04:16:58;;;;;;;12.60;11.30;;;;;20.20;101198.00;;;;2067150;28;20210;-47
2021/03/24 04:18:05;;;;;;;12.23;11.03;;;;;20.20;101198.00;;;;2061098;28;20227;-46
2021/03/24 04:19:09;;;;;;;11.93;10.90;;;;;20.20;101202.00;;;;2061331;28;20334;-46
2021/03/24 04:20:11;;;;;;;12.27;11.15;;;;;20.20;101197.00;;;;2061910;28;22294;-47
2021/03/24 04:21:11;;;;;;;13.13;11.93;;;;;20.20;101193.00;;;;2052442;28;20247;-46
2021/03/24 04:22:11;;;;;;;13.20;12.00;;;;;20.20;101195.00;;;;2041451;28;20822;-46
2021/03/24 04:23:14;;;;;;;12.90;11.80;;;;;20.20;101197.00;;;;2068489;28;20595;-47
2021/03/24 04:24:23;;;;;;;12.43;11.32;;;;;20.20;101193.00;;;;2052211;28;20787;-46
2021/03/24 04:25:26;;;;;;;12.77;11.68;;;;;20.20;101196.00;;;;2055837;28;20225;-47
2021/03/24 04:26:35;;;;;;;12.13;10.85;;;;;20.20;101192.00;;;;2070163;28;20215;-47
2021/03/24 04:27:36;;;;;;;11.95;10.85;;;;;20.20;101193.00;;;;2067362;28;20207;-46
2021/03/24 04:28:39;;;;;;;11.75;10.77;;;;;20.20;101198.00;;;;2060937;28;20219;-46
2021/03/24 04:29:46;;;;;;;11.15;10.20;;;;;20.20;101194.00;;;;2068131;28;20218;-47
2021/03/24 04:30:53;;;;;;;11.80;10.70;;;;;20.20;101204.00;;;;2061720;28;20215;-46
2021/03/24 04:31:56;;;;;;;12.70;11.50;;;;;20.20;101202.00;;;;2065763;28;20226;-47
2021/03/24 04:32:57;;;;;;;12.35;11.15;;;;;20.20;101205.00;;;;2061593;28;20655;-46
2021/03/24 04:33:57;;;;;;;11.60;10.60;;;;;20.20;101205.00;;;;2069749;28;20215;-47
2021/03/24 04:34:58;;;;;;;11.33;10.33;;;;;20.20;101212.00;;;;2070044;28;20265;-47
2021/03/24 04:36:01;;;;;;;11.40;10.30;;;;;20.20;101207.00;;;;2061351;28;20652;-47
2021/03/24 04:37:25;;;;;;;11.80;10.80;;;;;20.20;101208.00;;;;2059018;28;20224;-46
2021/03/24 04:38:32;;;;;;;12.13;11.02;;;;;20.20;101211.00;;;;2069109;28;20229;-47
2021/03/24 04:39:37;;;;;;;12.77;11.57;;;;;20.20;101206.00;;;;2069002;28;20210;-47
2021/03/24 04:40:48;;;;;;;11.75;10.75;;;;;20.20;101210.00;;;;2069346;28;20215;-47
2021/03/24 04:41:48;;;;;;;11.95;10.75;;;;;20.20;101215.00;;;;2060803;28;20215;-47
2021/03/24 04:42:51;;;;;;;11.93;10.77;;;;;20.20;101210.00;;;;2051930;28;20286;-46
2021/03/24 04:43:58;;;;;;;12.25;11.07;;;;;20.20;101207.00;;;;2069090;28;20211;-46
2021/03/24 04:44:59;;;;;;;11.60;10.50;;;;;20.20;101204.00;;;;2054219;28;20203;-47
2021/03/24 04:46:02;;;;;;;12.30;11.20;;;;;20.20;101202.00;;;;2053491;28;20204;-47
2021/03/24 04:47:08;;;;;;;11.98;10.77;;;;;20.20;101215.00;;;;2053746;28;20231;-46
2021/03/24 04:48:23;;;;;;;10.77;9.75;;;;;20.10;101206.00;;;;2061619;28;20323;-46
2021/03/24 04:49:25;;;;;;;11.65;10.48;;;;;20.10;101210.00;;;;2069582;28;20288;-46
2021/03/24 04:50:27;;;;;;;11.75;10.65;;;;;20.20;101209.00;;;;2068624;28;20333;-46
2021/03/24 04:51:30;;;;;;;11.60;10.50;;;;;20.20;101215.00;;;;2061111;28;20214;-47
2021/03/24 04:52:30;;;;;;;10.15;9.25;;;;;20.10;101216.00;;;;2061838;28;20308;-47
2021/03/24 04:53:35;;;;;;;12.20;10.90;;;;;20.20;101208.00;;;;2061025;28;20269;-46
2021/03/24 04:54:36;;;;;;;12.15;11.00;;;;;20.20;101212.00;;;;2069291;28;20214;-48
2021/03/24 04:55:36;;;;;;;11.40;10.40;;;;;20.10;101198.00;;;;2068519;28;20215;-46
2021/03/24 04:56:38;;;;;;;11.47;10.43;;;;;20.10;101205.00;;;;2068923;28;20242;-46
2021/03/24 04:57:38;;;;;;;12.20;11.10;;;;;20.10;101206.00;;;;2065231;28;20242;-46
2021/03/24 04:58:41;;;;;;;11.20;10.10;;;;;20.10;101207.00;;;;2056919;28;20211;-46
2021/03/24 04:59:43;;;;;;;11.95;10.85;;;;;20.10;101208.00;;;;2075181;28;20221;-45
2021/03/24 05:00:47;;;;;;;11.75;10.75;;;;;20.10;101214.00;;;;2073319;28;20448;-47
2021/03/24 05:01:59;;;;;;;12.00;10.90;;;;;20.10;101209.00;;;;2069264;28;20248;-46
2021/03/24 05:03:03;;;;;;;11.00;10.00;;;;;20.10;101207.00;;;;2070167;28;20309;-47
2021/03/24 05:04:11;;;;;;;11.80;10.75;;;;;20.10;101204.00;;;;2076849;28;20325;-46
2021/03/24 05:05:21;;;;;;;12.27;10.88;;;;;20.10;101208.00;;;;2067648;28;20214;-47
2021/03/24 05:06:30;;;;;;;11.40;10.40;;;;;20.10;101208.00;;;;2062589;28;20211;-46